sensor_id;sensor_type;location;lat;lon;timestamp;noise_LAeq;noise_LA_min;noise_LA_max;noise_LA01;noise_LA95
66335;Laerm;53138;51.496;6.410;2023-09-18T00:00:04;30.68;28.90;32.22;;
66335;Laerm;53138;51.496;6.410;2023-09-18T00:00:23;31.14;29.10;38.40;;
66335;Laerm;53138;51.496;6.410;2023-09-18T00:00:37;31.08;29.50;42.67;;
66335;Laerm;53138;51.496;6.410;2023-09-18T00:00:49;31.10;29.17;38.68;;
66335;Laerm;53138;51.496;6.410;2023-09-18T00:01:02;31.00;29.44;33.12;;
66335;Laerm;53138;51.496;6.410;2023-09-18T00:01:14;31.13;29.30;36.43;;
66335;Laerm;53138;51.496;6.410;2023-09-18T00:01:24;31.04;29.33;35.38;;
66335;Laerm;53138;51.496;6.410;2023-09-18T00:01:34;31.36;29.59;38.01;;
66335;Laerm;53138;51.496;6.410;2023-09-18T00:01:45;31.45;29.87;33.97;;
66335;Laerm;53138;51.496;6.410;2023-09-18T00:01:55;33.31;30.03;38.86;;
66335;Laerm;53138;51.496;6.410;2023-09-18T00:02:07;41.84;32.98;49.28;;
66335;Laerm;53138;51.496;6.410;2023-09-18T00:02:18;50.04;40.25;57.92;;
66335;Laerm;53138;51.496;6.410;2023-09-18T00:02:28;51.37;46.71;55.80;;
66335;Laerm;53138;51.496;6.410;2023-09-18T00:02:41;50.89;46.06;55.15;;
66335;Laerm;53138;51.496;6.410;2023-09-18T00:02:51;48.43;39.96;52.41;;
66335;Laerm;53138;51.496;6.410;2023-09-18T00:03:01;45.93;39.29;51.96;;
66335;Laerm;53138;51.496;6.410;2023-09-18T00:03:13;43.57;37.62;48.37;;
66335;Laerm;53138;51.496;6.410;2023-09-18T00:03:23;43.70;36.16;49.21;;
66335;Laerm;53138;51.496;6.410;2023-09-18T00:03:39;39.51;31.55;46.14;;
66335;Laerm;53138;51.496;6.410;2023-09-18T00:03:49;37.20;31.75;42.94;;
66335;Laerm;53138;51.496;6.410;2023-09-18T00:04:00;36.64;31.43;42.53;;
66335;Laerm;53138;51.496;6.410;2023-09-18T00:04:10;34.75;30.10;39.38;;
66335;Laerm;53138;51.496;6.410;2023-09-18T00:04:20;33.65;29.74;37.50;;
66335;Laerm;53138;51.496;6.410;2023-09-18T00:04:32;34.92;30.71;41.20;;
66335;Laerm;53138;51.496;6.410;2023-09-18T00:04:45;34.14;30.08;40.09;;
66335;Laerm;53138;51.496;6.410;2023-09-18T00:04:55;32.45;29.92;35.70;;
66335;Laerm;53138;51.496;6.410;2023-09-18T00:05:05;32.02;29.51;39.27;;
66335;Laerm;53138;51.496;6.410;2023-09-18T00:05:17;33.19;30.69;43.03;;
66335;Laerm;53138;51.496;6.410;2023-09-18T00:05:27;33.59;30.22;36.14;;
66335;Laerm;53138;51.496;6.410;2023-09-18T00:05:38;33.65;31.16;36.58;;
66335;Laerm;53138;51.496;6.410;2023-09-18T00:05:50;32.47;30.29;34.88;;
66335;Laerm;53138;51.496;6.410;2023-09-18T00:06:00;32.36;30.08;34.72;;
66335;Laerm;53138;51.496;6.410;2023-09-18T00:06:11;33.43;30.99;36.56;;
66335;Laerm;53138;51.496;6.410;2023-09-18T00:06:21;36.59;34.00;39.80;;
66335;Laerm;53138;51.496;6.410;2023-09-18T00:06:34;35.94;31.49;40.99;;
66335;Laerm;53138;51.496;6.410;2023-09-18T00:06:45;33.82;30.77;37.02;;
66335;Laerm;53138;51.496;6.410;2023-09-18T00:06:56;32.17;29.98;33.91;;
66335;Laerm;53138;51.496;6.410;2023-09-18T00:07:06;31.75;29.86;33.85;;
66335;Laerm;53138;51.496;6.410;2023-09-18T00:07:16;31.87;30.08;39.36;;
66335;Laerm;53138;51.496;6.410;2023-09-18T00:07:27;31.30;29.43;39.71;;
66335;Laerm;53138;51.496;6.410;2023-09-18T00:07:38;31.74;29.74;33.29;;
66335;Laerm;53138;51.496;6.410;2023-09-18T00:07:48;31.95;30.19;34.70;;
66335;Laerm;53138;51.496;6.410;2023-09-18T00:07:58;31.06;29.37;32.88;;
66335;Laerm;53138;51.496;6.410;2023-09-18T00:08:09;31.38;29.41;33.64;;
66335;Laerm;53138;51.496;6.410;2023-09-18T00:08:19;31.42;29.46;33.49;;
66335;Laerm;53138;51.496;6.410;2023-09-18T00:08:31;31.35;29.70;34.14;;
66335;Laerm;53138;51.496;6.410;2023-09-18T00:08:41;31.12;29.39;33.03;;
66335;Laerm;53138;51.496;6.410;2023-09-18T00:08:52;31.29;29.75;33.45;;
66335;Laerm;53138;51.496;6.410;2023-09-18T00:09:04;31.18;29.31;32.78;;
66335;Laerm;53138;51.496;6.410;2023-09-18T00:09:14;31.36;29.74;33.53;;
66335;Laerm;53138;51.496;6.410;2023-09-18T00:09:25;31.10;29.25;33.01;;
66335;Laerm;53138;51.496;6.410;2023-09-18T00:09:35;31.18;29.51;33.55;;
66335;Laerm;53138;51.496;6.410;2023-09-18T00:09:45;31.33;29.68;33.36;;
66335;Laerm;53138;51.496;6.410;2023-09-18T00:09:58;31.18;29.61;33.36;;
66335;Laerm;53138;51.496;6.410;2023-09-18T00:10:10;30.84;29.41;32.95;;
66335;Laerm;53138;51.496;6.410;2023-09-18T00:10:20;31.18;29.21;33.05;;
66335;Laerm;53138;51.496;6.410;2023-09-18T00:10:30;31.17;29.50;32.99;;
66335;Laerm;53138;51.496;6.410;2023-09-18T00:10:41;31.93;30.28;34.36;;
66335;Laerm;53138;51.496;6.410;2023-09-18T00:10:53;35.73;32.42;40.48;;
66335;Laerm;53138;51.496;6.410;2023-09-18T00:11:03;35.13;32.57;39.65;;
66335;Laerm;53138;51.496;6.410;2023-09-18T00:11:14;32.61;30.65;34.68;;
66335;Laerm;53138;51.496;6.410;2023-09-18T00:11:26;32.26;30.18;38.68;;
66335;Laerm;53138;51.496;6.410;2023-09-18T00:11:37;32.07;30.47;38.21;;
66335;Laerm;53138;51.496;6.410;2023-09-18T00:11:48;33.51;30.47;36.20;;
66335;Laerm;53138;51.496;6.410;2023-09-18T00:11:58;31.66;29.80;33.68;;
66335;Laerm;53138;51.496;6.410;2023-09-18T00:12:09;31.70;30.00;36.53;;
66335;Laerm;53138;51.496;6.410;2023-09-18T00:12:20;31.91;29.92;40.08;;
66335;Laerm;53138;51.496;6.410;2023-09-18T00:12:30;31.45;29.90;33.64;;
66335;Laerm;53138;51.496;6.410;2023-09-18T00:12:43;31.66;29.89;34.66;;
66335;Laerm;53138;51.496;6.410;2023-09-18T00:12:53;31.76;29.90;34.03;;
66335;Laerm;53138;51.496;6.410;2023-09-18T00:13:04;31.22;29.56;33.00;;
66335;Laerm;53138;51.496;6.410;2023-09-18T00:13:14;33.05;30.57;35.27;;
66335;Laerm;53138;51.496;6.410;2023-09-18T00:13:24;32.28;29.94;34.30;;
66335;Laerm;53138;51.496;6.410;2023-09-18T00:13:34;31.48;29.24;33.67;;
66335;Laerm;53138;51.496;6.410;2023-09-18T00:13:46;31.76;30.22;33.33;;
66335;Laerm;53138;51.496;6.410;2023-09-18T00:13:59;31.35;29.49;33.09;;
66335;Laerm;53138;51.496;6.410;2023-09-18T00:14:10;31.81;29.14;34.81;;
66335;Laerm;53138;51.496;6.410;2023-09-18T00:14:21;32.54;30.80;34.67;;
66335;Laerm;53138;51.496;6.410;2023-09-18T00:14:31;33.44;30.46;36.21;;
66335;Laerm;53138;51.496;6.410;2023-09-18T00:14:41;33.11;29.98;35.51;;
66335;Laerm;53138;51.496;6.410;2023-09-18T00:14:52;35.38;31.76;38.78;;
66335;Laerm;53138;51.496;6.410;2023-09-18T00:15:02;32.92;30.68;35.66;;
66335;Laerm;53138;51.496;6.410;2023-09-18T00:15:12;32.26;30.31;34.35;;
66335;Laerm;53138;51.496;6.410;2023-09-18T00:15:22;31.67;30.16;33.40;;
66335;Laerm;53138;51.496;6.410;2023-09-18T00:15:34;31.69;29.70;33.43;;
66335;Laerm;53138;51.496;6.410;2023-09-18T00:15:45;32.53;30.48;34.46;;
66335;Laerm;53138;51.496;6.410;2023-09-18T00:15:56;32.73;30.95;35.66;;
66335;Laerm;53138;51.496;6.410;2023-09-18T00:16:09;35.01;32.18;37.57;;
66335;Laerm;53138;51.496;6.410;2023-09-18T00:16:21;36.56;33.15;39.57;;
66335;Laerm;53138;51.496;6.410;2023-09-18T00:16:31;39.18;36.70;41.99;;
66335;Laerm;53138;51.496;6.410;2023-09-18T00:16:43;36.42;33.81;39.01;;
66335;Laerm;53138;51.496;6.410;2023-09-18T00:16:54;35.39;32.03;38.92;;
66335;Laerm;53138;51.496;6.410;2023-09-18T00:17:07;33.86;32.28;39.35;;
66335;Laerm;53138;51.496;6.410;2023-09-18T00:17:18;34.80;32.78;38.34;;
66335;Laerm;53138;51.496;6.410;2023-09-18T00:17:29;34.62;32.18;37.46;;
66335;Laerm;53138;51.496;6.410;2023-09-18T00:17:41;33.77;31.52;39.58;;
66335;Laerm;53138;51.496;6.410;2023-09-18T00:17:51;33.25;31.47;35.20;;
66335;Laerm;53138;51.496;6.410;2023-09-18T00:18:01;33.29;31.51;35.65;;
66335;Laerm;53138;51.496;6.410;2023-09-18T00:18:15;35.26;32.02;38.67;;
66335;Laerm;53138;51.496;6.410;2023-09-18T00:18:25;39.13;34.39;44.14;;
66335;Laerm;53138;51.496;6.410;2023-09-18T00:18:35;35.18;33.18;37.30;;
66335;Laerm;53138;51.496;6.410;2023-09-18T00:18:48;35.94;33.80;45.77;;
66335;Laerm;53138;51.496;6.410;2023-09-18T00:18:58;40.51;36.60;42.98;;
66335;Laerm;53138;51.496;6.410;2023-09-18T00:19:08;39.47;34.66;42.59;;
66335;Laerm;53138;51.496;6.410;2023-09-18T00:19:18;35.07;31.98;37.66;;
66335;Laerm;53138;51.496;6.410;2023-09-18T00:19:29;34.40;32.50;35.62;;
66335;Laerm;53138;51.496;6.410;2023-09-18T00:19:39;34.94;32.53;44.73;;
66335;Laerm;53138;51.496;6.410;2023-09-18T00:19:49;39.79;36.16;42.60;;
66335;Laerm;53138;51.496;6.410;2023-09-18T00:20:02;36.33;34.14;39.66;;
66335;Laerm;53138;51.496;6.410;2023-09-18T00:20:16;36.90;32.85;40.22;;
66335;Laerm;53138;51.496;6.410;2023-09-18T00:20:27;36.42;32.09;40.03;;
66335;Laerm;53138;51.496;6.410;2023-09-18T00:20:39;34.42;32.38;36.20;;
66335;Laerm;53138;51.496;6.410;2023-09-18T00:20:51;36.35;33.67;41.22;;
66335;Laerm;53138;51.496;6.410;2023-09-18T00:21:02;41.26;39.43;43.20;;
66335;Laerm;53138;51.496;6.410;2023-09-18T00:21:12;38.90;35.32;41.59;;
66335;Laerm;53138;51.496;6.410;2023-09-18T00:21:23;36.21;32.90;38.32;;
66335;Laerm;53138;51.496;6.410;2023-09-18T00:21:35;33.92;31.29;36.63;;
66335;Laerm;53138;51.496;6.410;2023-09-18T00:21:45;34.86;32.65;36.43;;
66335;Laerm;53138;51.496;6.410;2023-09-18T00:21:58;33.49;31.73;36.20;;
66335;Laerm;53138;51.496;6.410;2023-09-18T00:22:11;33.10;30.52;37.11;;
66335;Laerm;53138;51.496;6.410;2023-09-18T00:22:22;35.94;31.50;38.81;;
66335;Laerm;53138;51.496;6.410;2023-09-18T00:22:34;38.72;34.37;42.94;;
66335;Laerm;53138;51.496;6.410;2023-09-18T00:22:45;35.73;33.48;38.16;;
66335;Laerm;53138;51.496;6.410;2023-09-18T00:22:56;36.01;34.22;39.23;;
66335;Laerm;53138;51.496;6.410;2023-09-18T00:23:06;35.14;31.61;38.06;;
66335;Laerm;53138;51.496;6.410;2023-09-18T00:23:18;34.38;32.48;37.66;;
66335;Laerm;53138;51.496;6.410;2023-09-18T00:23:29;34.38;32.08;36.81;;
66335;Laerm;53138;51.496;6.410;2023-09-18T00:23:39;35.68;33.48;40.42;;
66335;Laerm;53138;51.496;6.410;2023-09-18T00:23:50;34.08;32.56;36.74;;
66335;Laerm;53138;51.496;6.410;2023-09-18T00:24:00;37.78;34.45;40.05;;
66335;Laerm;53138;51.496;6.410;2023-09-18T00:24:10;34.36;32.46;36.08;;
66335;Laerm;53138;51.496;6.410;2023-09-18T00:24:21;35.15;33.05;36.36;;
66335;Laerm;53138;51.496;6.410;2023-09-18T00:24:32;33.82;31.81;35.73;;
66335;Laerm;53138;51.496;6.410;2023-09-18T00:24:43;33.68;31.18;39.22;;
66335;Laerm;53138;51.496;6.410;2023-09-18T00:24:54;32.07;30.48;33.71;;
66335;Laerm;53138;51.496;6.410;2023-09-18T00:25:06;33.27;31.00;35.52;;
66335;Laerm;53138;51.496;6.410;2023-09-18T00:25:16;32.83;31.38;36.06;;
66335;Laerm;53138;51.496;6.410;2023-09-18T00:25:26;33.11;31.49;36.26;;
66335;Laerm;53138;51.496;6.410;2023-09-18T00:25:38;33.93;31.53;36.21;;
66335;Laerm;53138;51.496;6.410;2023-09-18T00:25:52;33.76;31.19;37.57;;
66335;Laerm;53138;51.496;6.410;2023-09-18T00:26:03;33.95;32.23;36.88;;
66335;Laerm;53138;51.496;6.410;2023-09-18T00:26:13;32.62;31.16;34.88;;
66335;Laerm;53138;51.496;6.410;2023-09-18T00:26:25;32.73;31.32;34.41;;
66335;Laerm;53138;51.496;6.410;2023-09-18T00:26:35;32.19;29.80;33.92;;
66335;Laerm;53138;51.496;6.410;2023-09-18T00:26:47;31.79;30.06;34.11;;
66335;Laerm;53138;51.496;6.410;2023-09-18T00:26:58;32.57;30.62;40.79;;
66335;Laerm;53138;51.496;6.410;2023-09-18T00:27:08;32.68;30.51;34.76;;
66335;Laerm;53138;51.496;6.410;2023-09-18T00:27:18;32.68;30.97;36.42;;
66335;Laerm;53138;51.496;6.410;2023-09-18T00:27:29;33.45;31.84;34.93;;
66335;Laerm;53138;51.496;6.410;2023-09-18T00:27:39;33.53;31.19;35.51;;
66335;Laerm;53138;51.496;6.410;2023-09-18T00:27:51;34.82;33.23;36.90;;
66335;Laerm;53138;51.496;6.410;2023-09-18T00:28:06;32.81;30.20;35.54;;
66335;Laerm;53138;51.496;6.410;2023-09-18T00:28:16;33.94;30.25;38.46;;
66335;Laerm;53138;51.496;6.410;2023-09-18T00:28:28;34.95;32.65;39.59;;
66335;Laerm;53138;51.496;6.410;2023-09-18T00:28:38;33.92;32.54;35.40;;
66335;Laerm;53138;51.496;6.410;2023-09-18T00:28:49;34.09;31.99;36.85;;
66335;Laerm;53138;51.496;6.410;2023-09-18T00:28:59;34.21;32.20;36.17;;
66335;Laerm;53138;51.496;6.410;2023-09-18T00:29:10;32.54;30.73;35.16;;
66335;Laerm;53138;51.496;6.410;2023-09-18T00:29:20;32.93;30.71;34.94;;
66335;Laerm;53138;51.496;6.410;2023-09-18T00:29:30;32.55;30.71;33.83;;
66335;Laerm;53138;51.496;6.410;2023-09-18T00:29:40;33.57;31.91;36.08;;
66335;Laerm;53138;51.496;6.410;2023-09-18T00:29:52;32.39;30.42;34.09;;
66335;Laerm;53138;51.496;6.410;2023-09-18T00:30:03;33.66;30.83;35.85;;
66335;Laerm;53138;51.496;6.410;2023-09-18T00:30:14;35.12;32.80;36.97;;
66335;Laerm;53138;51.496;6.410;2023-09-18T00:30:24;33.22;31.23;35.74;;
66335;Laerm;53138;51.496;6.410;2023-09-18T00:30:37;32.57;30.82;34.12;;
66335;Laerm;53138;51.496;6.410;2023-09-18T00:30:48;32.98;31.15;36.48;;
66335;Laerm;53138;51.496;6.410;2023-09-18T00:30:59;34.41;31.69;38.98;;
66335;Laerm;53138;51.496;6.410;2023-09-18T00:31:11;32.49;30.97;35.56;;
66335;Laerm;53138;51.496;6.410;2023-09-18T00:31:21;33.00;30.51;36.52;;
66335;Laerm;53138;51.496;6.410;2023-09-18T00:31:31;32.20;30.63;34.44;;
66335;Laerm;53138;51.496;6.410;2023-09-18T00:31:43;32.73;30.73;34.59;;
66335;Laerm;53138;51.496;6.410;2023-09-18T00:31:54;31.74;29.54;38.61;;
66335;Laerm;53138;51.496;6.410;2023-09-18T00:32:04;32.06;30.09;41.67;;
66335;Laerm;53138;51.496;6.410;2023-09-18T00:32:14;32.60;31.06;34.26;;
66335;Laerm;53138;51.496;6.410;2023-09-18T00:32:27;33.88;31.38;35.81;;
66335;Laerm;53138;51.496;6.410;2023-09-18T00:32:37;33.35;31.77;35.58;;
66335;Laerm;53138;51.496;6.410;2023-09-18T00:32:48;33.37;31.57;35.63;;
66335;Laerm;53138;51.496;6.410;2023-09-18T00:32:59;33.80;32.27;35.38;;
66335;Laerm;53138;51.496;6.410;2023-09-18T00:33:10;34.36;32.66;36.22;;
66335;Laerm;53138;51.496;6.410;2023-09-18T00:33:22;34.86;32.31;36.67;;
66335;Laerm;53138;51.496;6.410;2023-09-18T00:33:32;33.56;31.49;35.81;;
66335;Laerm;53138;51.496;6.410;2023-09-18T00:33:43;32.37;30.98;34.52;;
66335;Laerm;53138;51.496;6.410;2023-09-18T00:33:53;32.76;30.74;36.08;;
66335;Laerm;53138;51.496;6.410;2023-09-18T00:34:05;33.49;31.46;37.31;;
66335;Laerm;53138;51.496;6.410;2023-09-18T00:34:16;33.42;30.86;35.60;;
66335;Laerm;53138;51.496;6.410;2023-09-18T00:34:26;33.66;31.37;36.50;;
66335;Laerm;53138;51.496;6.410;2023-09-18T00:34:38;32.80;30.98;35.71;;
66335;Laerm;53138;51.496;6.410;2023-09-18T00:34:49;34.98;31.75;39.18;;
66335;Laerm;53138;51.496;6.410;2023-09-18T00:35:00;39.52;33.17;44.83;;
66335;Laerm;53138;51.496;6.410;2023-09-18T00:35:11;34.18;31.69;36.52;;
66335;Laerm;53138;51.496;6.410;2023-09-18T00:35:22;32.54;30.57;34.09;;
66335;Laerm;53138;51.496;6.410;2023-09-18T00:35:33;31.97;29.65;34.22;;
66335;Laerm;53138;51.496;6.410;2023-09-18T00:35:50;32.66;30.55;34.63;;
66335;Laerm;53138;51.496;6.410;2023-09-18T00:36:01;32.65;30.80;35.24;;
66335;Laerm;53138;51.496;6.410;2023-09-18T00:36:11;32.52;30.55;34.78;;
66335;Laerm;53138;51.496;6.410;2023-09-18T00:36:23;33.53;31.31;37.01;;
66335;Laerm;53138;51.496;6.410;2023-09-18T00:36:34;33.07;30.66;36.72;;
66335;Laerm;53138;51.496;6.410;2023-09-18T00:36:44;31.69;29.91;33.32;;
66335;Laerm;53138;51.496;6.410;2023-09-18T00:36:56;33.45;30.69;36.10;;
66335;Laerm;53138;51.496;6.410;2023-09-18T00:37:07;36.09;31.99;40.76;;
66335;Laerm;53138;51.496;6.410;2023-09-18T00:37:17;39.31;35.71;41.75;;
66335;Laerm;53138;51.496;6.410;2023-09-18T00:37:28;35.59;32.25;37.62;;
66335;Laerm;53138;51.496;6.410;2023-09-18T00:37:38;32.36;30.35;34.40;;
66335;Laerm;53138;51.496;6.410;2023-09-18T00:37:49;32.14;30.26;34.66;;
66335;Laerm;53138;51.496;6.410;2023-09-18T00:38:00;32.42;30.61;37.13;;
66335;Laerm;53138;51.496;6.410;2023-09-18T00:38:17;33.27;31.47;35.43;;
66335;Laerm;53138;51.496;6.410;2023-09-18T00:38:28;32.35;30.61;39.11;;
66335;Laerm;53138;51.496;6.410;2023-09-18T00:38:38;32.72;30.36;35.72;;
66335;Laerm;53138;51.496;6.410;2023-09-18T00:38:49;32.17;30.24;33.79;;
66335;Laerm;53138;51.496;6.410;2023-09-18T00:38:59;31.46;29.97;33.23;;
66335;Laerm;53138;51.496;6.410;2023-09-18T00:39:09;31.23;29.79;32.92;;
66335;Laerm;53138;51.496;6.410;2023-09-18T00:39:20;31.96;29.70;35.12;;
66335;Laerm;53138;51.496;6.410;2023-09-18T00:39:31;31.12;29.60;32.92;;
66335;Laerm;53138;51.496;6.410;2023-09-18T00:39:41;34.27;29.95;38.63;;
66335;Laerm;53138;51.496;6.410;2023-09-18T00:39:52;36.73;33.28;39.59;;
66335;Laerm;53138;51.496;6.410;2023-09-18T00:40:03;32.83;31.27;34.85;;
66335;Laerm;53138;51.496;6.410;2023-09-18T00:40:15;31.65;29.88;33.53;;
66335;Laerm;53138;51.496;6.410;2023-09-18T00:40:25;31.31;29.87;32.97;;
66335;Laerm;53138;51.496;6.410;2023-09-18T00:40:35;33.02;31.25;34.97;;
66335;Laerm;53138;51.496;6.410;2023-09-18T00:40:46;35.08;31.97;37.85;;
66335;Laerm;53138;51.496;6.410;2023-09-18T00:40:57;33.70;31.84;36.89;;
66335;Laerm;53138;51.496;6.410;2023-09-18T00:41:07;33.24;31.80;35.80;;
66335;Laerm;53138;51.496;6.410;2023-09-18T00:41:18;32.78;30.58;35.19;;
66335;Laerm;53138;51.496;6.410;2023-09-18T00:41:29;31.24;29.68;33.36;;
66335;Laerm;53138;51.496;6.410;2023-09-18T00:41:40;32.24;29.45;34.20;;
66335;Laerm;53138;51.496;6.410;2023-09-18T00:41:51;32.72;30.21;37.61;;
66335;Laerm;53138;51.496;6.410;2023-09-18T00:42:04;31.71;30.01;34.80;;
66335;Laerm;53138;51.496;6.410;2023-09-18T00:42:15;31.82;30.44;37.51;;
66335;Laerm;53138;51.496;6.410;2023-09-18T00:42:27;32.22;30.49;34.05;;
66335;Laerm;53138;51.496;6.410;2023-09-18T00:42:40;32.91;30.50;35.25;;
66335;Laerm;53138;51.496;6.410;2023-09-18T00:42:51;34.95;31.17;38.77;;
66335;Laerm;53138;51.496;6.410;2023-09-18T00:43:02;35.07;32.06;38.16;;
66335;Laerm;53138;51.496;6.410;2023-09-18T00:43:12;33.71;32.07;35.62;;
66335;Laerm;53138;51.496;6.410;2023-09-18T00:43:23;32.47;30.13;34.90;;
66335;Laerm;53138;51.496;6.410;2023-09-18T00:43:33;31.68;30.06;33.56;;
66335;Laerm;53138;51.496;6.410;2023-09-18T00:43:44;31.40;29.54;36.03;;
66335;Laerm;53138;51.496;6.410;2023-09-18T00:43:56;32.32;30.59;34.03;;
66335;Laerm;53138;51.496;6.410;2023-09-18T00:44:08;32.89;30.88;35.46;;
66335;Laerm;53138;51.496;6.410;2023-09-18T00:44:18;32.41;30.23;35.26;;
66335;Laerm;53138;51.496;6.410;2023-09-18T00:44:29;33.47;30.72;36.64;;
66335;Laerm;53138;51.496;6.410;2023-09-18T00:44:40;32.48;29.95;36.14;;
66335;Laerm;53138;51.496;6.410;2023-09-18T00:44:51;31.66;30.13;35.87;;
66335;Laerm;53138;51.496;6.410;2023-09-18T00:45:02;31.73;29.84;33.43;;
66335;Laerm;53138;51.496;6.410;2023-09-18T00:45:12;33.44;30.60;38.01;;
66335;Laerm;53138;51.496;6.410;2023-09-18T00:45:22;40.31;33.56;46.38;;
66335;Laerm;53138;51.496;6.410;2023-09-18T00:45:34;37.44;32.27;43.85;;
66335;Laerm;53138;51.496;6.410;2023-09-18T00:45:46;31.41;29.83;33.07;;
66335;Laerm;53138;51.496;6.410;2023-09-18T00:45:58;31.70;30.02;35.18;;
66335;Laerm;53138;51.496;6.410;2023-09-18T00:46:09;31.35;29.49;33.23;;
66335;Laerm;53138;51.496;6.410;2023-09-18T00:46:19;31.39;29.78;33.44;;
66335;Laerm;53138;51.496;6.410;2023-09-18T00:46:30;31.18;29.51;33.15;;
66335;Laerm;53138;51.496;6.410;2023-09-18T00:46:40;31.06;29.31;32.78;;
66335;Laerm;53138;51.496;6.410;2023-09-18T00:46:50;31.04;29.34;32.90;;
66335;Laerm;53138;51.496;6.410;2023-09-18T00:47:02;31.24;29.59;33.37;;
66335;Laerm;53138;51.496;6.410;2023-09-18T00:47:12;34.12;30.30;38.44;;
66335;Laerm;53138;51.496;6.410;2023-09-18T00:47:25;33.31;31.30;35.49;;
66335;Laerm;53138;51.496;6.410;2023-09-18T00:47:36;32.01;30.30;35.28;;
66335;Laerm;53138;51.496;6.410;2023-09-18T00:47:46;31.57;30.01;33.67;;
66335;Laerm;53138;51.496;6.410;2023-09-18T00:47:58;31.02;29.47;33.05;;
66335;Laerm;53138;51.496;6.410;2023-09-18T00:48:08;31.23;29.22;33.34;;
66335;Laerm;53138;51.496;6.410;2023-09-18T00:48:20;31.70;30.18;33.26;;
66335;Laerm;53138;51.496;6.410;2023-09-18T00:48:31;31.28;29.69;33.23;;
66335;Laerm;53138;51.496;6.410;2023-09-18T00:48:41;31.87;30.34;33.36;;
66335;Laerm;53138;51.496;6.410;2023-09-18T00:48:53;32.15;30.64;33.96;;
66335;Laerm;53138;51.496;6.410;2023-09-18T00:49:03;31.71;30.37;32.97;;
66335;Laerm;53138;51.496;6.410;2023-09-18T00:49:14;31.71;29.96;33.55;;
66335;Laerm;53138;51.496;6.410;2023-09-18T00:49:25;31.56;30.13;33.46;;
66335;Laerm;53138;51.496;6.410;2023-09-18T00:49:37;32.12;30.54;38.75;;
66335;Laerm;53138;51.496;6.410;2023-09-18T00:49:49;31.76;29.87;37.93;;
66335;Laerm;53138;51.496;6.410;2023-09-18T00:50:00;32.30;30.60;34.62;;
66335;Laerm;53138;51.496;6.410;2023-09-18T00:50:11;32.26;30.02;34.50;;
66335;Laerm;53138;51.496;6.410;2023-09-18T00:50:23;32.24;30.20;34.73;;
66335;Laerm;53138;51.496;6.410;2023-09-18T00:50:35;32.42;30.45;34.31;;
66335;Laerm;53138;51.496;6.410;2023-09-18T00:50:45;31.50;29.88;33.57;;
66335;Laerm;53138;51.496;6.410;2023-09-18T00:50:57;31.24;29.84;32.76;;
66335;Laerm;53138;51.496;6.410;2023-09-18T00:51:08;31.73;30.00;34.51;;
66335;Laerm;53138;51.496;6.410;2023-09-18T00:51:18;31.65;29.99;33.51;;
66335;Laerm;53138;51.496;6.410;2023-09-18T00:51:29;31.91;30.29;33.90;;
66335;Laerm;53138;51.496;6.410;2023-09-18T00:51:40;32.40;30.79;34.95;;
66335;Laerm;53138;51.496;6.410;2023-09-18T00:51:50;32.62;30.92;34.33;;
66335;Laerm;53138;51.496;6.410;2023-09-18T00:52:01;34.98;31.83;37.47;;
66335;Laerm;53138;51.496;6.410;2023-09-18T00:52:11;35.87;33.80;38.10;;
66335;Laerm;53138;51.496;6.410;2023-09-18T00:52:22;32.78;30.52;36.21;;
66335;Laerm;53138;51.496;6.410;2023-09-18T00:52:34;32.07;30.13;38.86;;
66335;Laerm;53138;51.496;6.410;2023-09-18T00:52:44;31.61;30.18;33.61;;
66335;Laerm;53138;51.496;6.410;2023-09-18T00:52:55;30.97;29.52;33.14;;
66335;Laerm;53138;51.496;6.410;2023-09-18T00:53:06;31.02;29.40;32.82;;
66335;Laerm;53138;51.496;6.410;2023-09-18T00:53:17;31.23;29.32;32.98;;
66335;Laerm;53138;51.496;6.410;2023-09-18T00:53:30;31.02;29.42;32.95;;
66335;Laerm;53138;51.496;6.410;2023-09-18T00:53:46;31.15;29.28;33.02;;
66335;Laerm;53138;51.496;6.410;2023-09-18T00:54:00;38.43;30.23;48.22;;
66335;Laerm;53138;51.496;6.410;2023-09-18T00:54:11;40.14;33.33;48.66;;
66335;Laerm;53138;51.496;6.410;2023-09-18T00:54:21;35.84;32.89;38.68;;
66335;Laerm;53138;51.496;6.410;2023-09-18T00:54:32;40.35;36.31;45.58;;
66335;Laerm;53138;51.496;6.410;2023-09-18T00:54:43;34.78;30.66;40.32;;
66335;Laerm;53138;51.496;6.410;2023-09-18T00:54:54;31.22;29.43;33.30;;
66335;Laerm;53138;51.496;6.410;2023-09-18T00:55:06;32.43;29.91;35.10;;
66335;Laerm;53138;51.496;6.410;2023-09-18T00:55:17;32.47;30.43;34.87;;
66335;Laerm;53138;51.496;6.410;2023-09-18T00:55:28;32.08;30.08;34.19;;
66335;Laerm;53138;51.496;6.410;2023-09-18T00:55:40;31.56;29.85;33.55;;
66335;Laerm;53138;51.496;6.410;2023-09-18T00:55:52;31.08;29.50;37.36;;
66335;Laerm;53138;51.496;6.410;2023-09-18T00:56:03;31.15;29.55;33.10;;
66335;Laerm;53138;51.496;6.410;2023-09-18T00:56:13;31.05;29.53;38.92;;
66335;Laerm;53138;51.496;6.410;2023-09-18T00:56:24;30.79;29.00;32.82;;
66335;Laerm;53138;51.496;6.410;2023-09-18T00:56:34;30.76;29.39;32.60;;
66335;Laerm;53138;51.496;6.410;2023-09-18T00:56:46;30.67;28.97;33.16;;
66335;Laerm;53138;51.496;6.410;2023-09-18T00:56:58;31.10;29.81;32.78;;
66335;Laerm;53138;51.496;6.410;2023-09-18T00:57:09;31.13;29.60;32.88;;
66335;Laerm;53138;51.496;6.410;2023-09-18T00:57:21;31.36;29.72;33.67;;
66335;Laerm;53138;51.496;6.410;2023-09-18T00:57:31;32.51;30.66;40.85;;
66335;Laerm;53138;51.496;6.410;2023-09-18T00:57:41;34.79;30.93;45.81;;
66335;Laerm;53138;51.496;6.410;2023-09-18T00:57:54;32.82;30.35;35.90;;
66335;Laerm;53138;51.496;6.410;2023-09-18T00:58:05;32.91;30.88;36.14;;
66335;Laerm;53138;51.496;6.410;2023-09-18T00:58:16;32.03;30.11;33.96;;
66335;Laerm;53138;51.496;6.410;2023-09-18T00:58:26;31.41;29.96;34.08;;
66335;Laerm;53138;51.496;6.410;2023-09-18T00:58:39;31.50;30.04;33.11;;
66335;Laerm;53138;51.496;6.410;2023-09-18T00:58:50;31.72;30.05;33.68;;
66335;Laerm;53138;51.496;6.410;2023-09-18T00:59:01;31.94;29.82;35.82;;
66335;Laerm;53138;51.496;6.410;2023-09-18T00:59:14;31.60;29.64;39.94;;
66335;Laerm;53138;51.496;6.410;2023-09-18T00:59:24;31.25;29.58;33.69;;
66335;Laerm;53138;51.496;6.410;2023-09-18T00:59:37;31.02;29.47;32.95;;
66335;Laerm;53138;51.496;6.410;2023-09-18T00:59:47;31.46;29.33;38.46;;
66335;Laerm;53138;51.496;6.410;2023-09-18T00:59:58;30.96;29.02;38.50;;
66335;Laerm;53138;51.496;6.410;2023-09-18T01:00:09;30.77;28.87;32.65;;
66335;Laerm;53138;51.496;6.410;2023-09-18T01:00:21;30.75;29.03;32.43;;
66335;Laerm;53138;51.496;6.410;2023-09-18T01:00:33;30.74;28.90;35.04;;
66335;Laerm;53138;51.496;6.410;2023-09-18T01:00:44;30.85;29.25;32.38;;
66335;Laerm;53138;51.496;6.410;2023-09-18T01:00:55;31.36;28.74;40.33;;
66335;Laerm;53138;51.496;6.410;2023-09-18T01:01:05;30.68;29.26;35.53;;
66335;Laerm;53138;51.496;6.410;2023-09-18T01:01:16;30.56;28.93;32.43;;
66335;Laerm;53138;51.496;6.410;2023-09-18T01:01:32;30.71;28.98;32.69;;
66335;Laerm;53138;51.496;6.410;2023-09-18T01:01:42;30.95;29.11;33.37;;
66335;Laerm;53138;51.496;6.410;2023-09-18T01:01:54;30.84;29.37;32.46;;
66335;Laerm;53138;51.496;6.410;2023-09-18T01:02:06;30.96;29.32;38.68;;
66335;Laerm;53138;51.496;6.410;2023-09-18T01:02:16;30.46;28.87;32.52;;